createdAt,value
2023-05-08T00:01:40.951Z,14.70
2023-05-08T00:06:42.428Z,14.61
2023-05-08T00:11:43.920Z,14.56
2023-05-08T00:16:45.584Z,14.50
2023-05-08T00:21:47.278Z,14.46
2023-05-08T00:26:48.824Z,14.45
2023-05-08T00:31:50.340Z,14.37
2023-05-08T00:36:52.137Z,14.27
2023-05-08T00:41:53.592Z,14.23
2023-05-08T00:46:55.289Z,14.17
2023-05-08T00:51:57.481Z,14.10
2023-05-08T00:57:00.916Z,14.05
2023-05-08T01:02:02.735Z,14.02
2023-05-08T01:07:04.450Z,14.02
2023-05-08T01:12:21.207Z,14.01
2023-05-08T01:17:42.925Z,13.97
2023-05-08T01:23:02.867Z,13.97
2023-05-08T01:28:31.047Z,13.95
2023-05-08T01:33:40.968Z,13.85
2023-05-08T01:39:03.535Z,13.85
2023-05-08T01:44:13.728Z,13.87
2023-05-08T01:49:25.419Z,13.86
2023-05-08T01:54:28.764Z,13.79
2023-05-08T01:59:32.707Z,13.76
2023-05-08T02:04:34.927Z,13.75
2023-05-08T02:09:37.869Z,13.77
2023-05-08T02:14:41.996Z,13.77
2023-05-08T02:19:44.596Z,13.86
2023-05-08T02:24:46.619Z,13.91
2023-05-08T02:29:49.187Z,13.91
2023-05-08T02:35:02.631Z,13.89
2023-05-08T02:40:08.172Z,13.90
2023-05-08T02:45:12.158Z,13.82
2023-05-08T02:50:21.866Z,13.74
2023-05-08T02:55:41.869Z,13.68
2023-05-08T03:01:06.741Z,13.61
2023-05-08T03:06:13.382Z,13.54
2023-05-08T03:11:22.640Z,13.49
2023-05-08T03:16:26.667Z,13.37
2023-05-08T03:21:30.505Z,13.31
2023-05-08T03:26:32.334Z,13.29
2023-05-08T03:31:35.329Z,13.30
2023-05-08T03:36:36.974Z,13.27
2023-05-08T03:41:38.583Z,13.25
2023-05-08T03:46:42.263Z,13.20
2023-05-08T03:51:44.722Z,13.17
2023-05-08T03:56:47.865Z,13.09
2023-05-08T04:01:55.272Z,13.07
2023-05-08T04:07:03.676Z,13.03
2023-05-08T04:12:13.770Z,12.96
2023-05-08T04:17:22.564Z,12.94
2023-05-08T04:22:27.063Z,12.94
2023-05-08T04:27:29.288Z,12.96
2023-05-08T04:32:31.922Z,13.00
2023-05-08T04:37:33.596Z,13.07
2023-05-08T04:42:36.676Z,13.11
2023-05-08T04:47:38.284Z,13.14
2023-05-08T04:52:39.856Z,13.15
2023-05-08T04:57:41.450Z,13.20
2023-05-08T05:02:43.031Z,13.24
2023-05-08T05:07:44.583Z,13.29
2023-05-08T05:12:46.133Z,13.33
2023-05-08T05:17:47.685Z,13.38
2023-05-08T05:22:49.364Z,13.36
2023-05-08T05:27:50.959Z,13.41
2023-05-08T05:32:52.485Z,13.39
2023-05-08T05:37:54.227Z,13.40
2023-05-08T05:42:55.756Z,13.43
2023-05-08T05:47:57.549Z,13.48
2023-05-08T05:52:59.044Z,13.55
2023-05-08T05:58:00.500Z,13.68
2023-05-08T06:03:03.014Z,13.84
2023-05-08T06:08:05.765Z,13.97
2023-05-08T06:13:08.917Z,14.12
2023-05-08T06:18:10.517Z,14.12
2023-05-08T06:23:12.426Z,14.15
2023-05-08T06:28:13.951Z,14.25
2023-05-08T06:33:15.587Z,14.29
2023-05-08T06:38:17.182Z,14.32
2023-05-08T06:43:18.720Z,14.27
2023-05-08T06:48:20.761Z,14.29
2023-05-08T06:53:22.345Z,14.31
2023-05-08T06:58:23.876Z,14.39
2023-05-08T07:03:25.623Z,14.44
2023-05-08T07:08:27.176Z,14.49
2023-05-08T07:13:28.845Z,14.53
2023-05-08T07:18:30.678Z,14.56
2023-05-08T07:23:32.221Z,14.57
2023-05-08T07:28:33.935Z,14.59
2023-05-08T07:33:35.554Z,14.68
2023-05-08T07:38:37.132Z,14.79
2023-05-08T07:43:39.198Z,14.86
2023-05-08T07:48:40.698Z,15.02
2023-05-08T07:53:42.512Z,15.18
2023-05-08T07:58:45.996Z,15.45
2023-05-08T08:03:47.921Z,15.81
2023-05-08T08:08:49.535Z,15.97
2023-05-08T08:13:51.094Z,16.24
2023-05-08T08:18:55.587Z,16.41
2023-05-08T08:23:57.341Z,16.58
2023-05-08T08:28:58.870Z,16.79
2023-05-08T08:34:00.434Z,16.92
2023-05-08T08:39:02.015Z,17.00
2023-05-08T08:44:03.642Z,17.07
2023-05-08T08:49:09.712Z,17.19
2023-05-08T08:54:17.437Z,17.23
2023-05-08T08:59:19.363Z,17.34
2023-05-08T09:04:21.000Z,17.47
2023-05-08T09:09:23.428Z,17.43
2023-05-08T09:14:26.633Z,17.38
2023-05-08T09:19:29.248Z,17.32
2023-05-08T09:24:59.752Z,17.33
2023-05-08T09:30:05.848Z,17.40
2023-05-08T09:35:09.074Z,17.42
2023-05-08T09:40:19.212Z,17.30
2023-05-08T09:45:31.735Z,17.41
2023-05-08T09:50:34.080Z,17.31
2023-05-08T09:55:48.827Z,17.23
2023-05-08T10:00:51.568Z,17.30
2023-05-08T10:05:53.151Z,17.18
2023-05-08T10:10:54.815Z,17.29
2023-05-08T10:15:56.902Z,17.16
2023-05-08T10:21:01.553Z,16.99
2023-05-08T10:26:09.913Z,16.99
2023-05-08T10:31:14.469Z,16.91
2023-05-08T10:36:17.110Z,16.96
2023-05-08T10:41:19.911Z,17.00
2023-05-08T10:47:05.808Z,17.12
2023-05-08T10:52:12.304Z,17.33
2023-05-08T10:57:15.003Z,17.47
2023-05-08T11:02:18.291Z,17.88
2023-05-08T11:07:20.031Z,18.30
2023-05-08T11:12:26.259Z,18.64
2023-05-08T11:17:28.837Z,18.71
2023-05-08T11:22:34.512Z,18.47
2023-05-08T11:27:49.133Z,18.57
2023-05-08T11:33:06.367Z,18.57
2023-05-08T11:38:11.808Z,18.62
2023-05-08T11:43:58.331Z,18.97
2023-05-08T11:49:01.649Z,19.04
2023-05-08T11:54:03.876Z,19.26
2023-05-08T11:59:06.428Z,19.45
2023-05-08T12:04:13.297Z,19.51
2023-05-08T12:09:15.934Z,19.19
2023-05-08T12:14:18.479Z,19.26
2023-05-08T12:19:20.037Z,19.35
2023-05-08T12:24:25.483Z,19.23
2023-05-08T12:29:27.046Z,19.12
2023-05-08T12:34:28.894Z,19.34
2023-05-08T12:39:35.665Z,19.47
2023-05-08T12:44:37.179Z,19.54
2023-05-08T12:49:38.793Z,19.34
2023-05-08T12:54:52.305Z,19.23
2023-05-08T13:00:04.842Z,19.13
2023-05-08T13:05:06.731Z,19.12
2023-05-08T13:10:09.130Z,19.12
2023-05-08T13:15:10.935Z,19.14
2023-05-08T13:20:12.584Z,19.18
2023-05-08T13:25:14.622Z,19.15
2023-05-08T13:30:16.717Z,19.09
2023-05-08T13:35:19.460Z,18.88
2023-05-08T13:40:21.080Z,18.81
2023-05-08T13:45:22.589Z,18.62
2023-05-08T13:50:24.147Z,18.81
2023-05-08T13:55:25.879Z,18.89
2023-05-08T14:00:28.214Z,18.86
2023-05-08T14:05:29.879Z,18.73
2023-05-08T14:10:31.395Z,18.79
2023-05-08T14:15:37.306Z,18.75
2023-05-08T14:20:39.305Z,18.74
2023-05-08T14:25:40.912Z,18.81
2023-05-08T14:30:42.484Z,18.94
2023-05-08T14:35:43.961Z,18.88
2023-05-08T14:40:45.476Z,18.86
2023-05-08T14:45:47.021Z,18.94
2023-05-08T14:50:48.578Z,19.02
2023-05-08T14:55:50.439Z,19.01
2023-05-08T15:00:52.167Z,18.97
2023-05-08T15:05:53.771Z,19.07
2023-05-08T15:10:55.706Z,19.11
2023-05-08T15:15:58.375Z,19.10
2023-05-08T15:20:59.896Z,19.13
2023-05-08T15:26:02.633Z,19.12
2023-05-08T15:31:04.908Z,19.17
2023-05-08T15:36:06.614Z,19.22
2023-05-08T15:41:12.134Z,19.03
2023-05-08T15:46:15.489Z,18.44
2023-05-08T15:51:17.365Z,18.12
2023-05-08T15:56:24.584Z,17.83
2023-05-08T16:01:26.261Z,17.70
2023-05-08T16:06:27.775Z,17.49
2023-05-08T16:11:32.770Z,17.32
2023-05-08T16:16:34.331Z,17.26
2023-05-08T16:21:36.089Z,17.15
2023-05-08T16:26:37.624Z,17.17
2023-05-08T16:31:39.205Z,17.04
2023-05-08T16:36:40.701Z,16.93
2023-05-08T16:41:42.319Z,16.91
2023-05-08T16:46:44.110Z,16.96
2023-05-08T16:51:45.716Z,16.94
2023-05-08T16:56:47.236Z,16.93
2023-05-08T17:01:48.933Z,16.93
2023-05-08T17:06:50.459Z,17.06
2023-05-08T17:11:52.047Z,17.08
2023-05-08T17:16:53.570Z,17.09
2023-05-08T17:21:55.692Z,16.96
2023-05-08T17:26:58.654Z,16.95
2023-05-08T17:32:00.327Z,16.94
2023-05-08T17:37:01.880Z,16.86
2023-05-08T17:42:03.421Z,16.80
2023-05-08T17:47:04.967Z,16.70
2023-05-08T17:52:06.560Z,16.63
2023-05-08T17:57:08.234Z,16.55
2023-05-08T18:02:09.832Z,16.51
2023-05-08T18:07:11.359Z,16.48
2023-05-08T18:12:12.918Z,16.43
2023-05-08T18:17:19.209Z,16.40
2023-05-08T18:22:20.873Z,16.31
2023-05-08T18:27:22.709Z,16.24
2023-05-08T18:32:24.270Z,16.24
2023-05-08T18:37:25.865Z,16.17
2023-05-08T18:42:27.337Z,16.02
2023-05-08T18:47:28.953Z,15.93
2023-05-08T18:52:30.497Z,15.80
2023-05-08T18:57:31.998Z,15.67
2023-05-08T19:02:33.666Z,15.57
2023-05-08T19:07:35.295Z,15.48
2023-05-08T19:12:36.823Z,15.39
2023-05-08T19:17:38.413Z,15.30
2023-05-08T19:22:39.933Z,15.19
2023-05-08T19:27:41.662Z,15.08
2023-05-08T19:32:43.233Z,14.91
2023-05-08T19:37:45.077Z,14.84
2023-05-08T19:42:46.617Z,14.88
2023-05-08T19:47:52.062Z,15.01
2023-05-08T19:52:53.726Z,15.10
2023-05-08T19:57:55.228Z,15.14
2023-05-08T20:02:56.924Z,15.25
2023-05-08T20:07:58.566Z,15.29
2023-05-08T20:13:00.651Z,15.32
2023-05-08T20:18:02.333Z,15.33
2023-05-08T20:23:04.602Z,15.29
2023-05-08T20:28:06.194Z,15.21
2023-05-08T20:33:07.759Z,15.17
2023-05-08T20:38:09.772Z,15.14
2023-05-08T20:43:11.381Z,15.11
2023-05-08T20:48:12.929Z,15.07
2023-05-08T20:53:14.512Z,14.99
2023-05-08T20:58:16.095Z,14.87
2023-05-08T21:03:17.634Z,14.76
2023-05-08T21:08:26.436Z,14.65
2023-05-08T21:13:28.189Z,14.53
2023-05-08T21:18:29.700Z,14.46
2023-05-08T21:23:31.239Z,14.42
2023-05-08T21:28:32.734Z,14.37
2023-05-08T21:33:34.388Z,14.31
2023-05-08T21:38:36.025Z,14.23
2023-05-08T21:43:37.627Z,14.21
2023-05-08T21:48:39.178Z,14.14
2023-05-08T21:53:40.797Z,14.12
2023-05-08T21:58:42.495Z,14.09
2023-05-08T22:03:44.040Z,14.05
2023-05-08T22:08:46.061Z,13.98
2023-05-08T22:13:47.575Z,13.98
2023-05-08T22:18:49.171Z,13.98
2023-05-08T22:23:50.673Z,13.99
2023-05-08T22:28:52.393Z,13.91
2023-05-08T22:33:53.951Z,13.87
2023-05-08T22:38:55.775Z,13.84
2023-05-08T22:43:57.367Z,13.83
2023-05-08T22:48:59.999Z,13.83
2023-05-08T22:54:01.528Z,13.87
2023-05-08T22:59:02.991Z,13.85
2023-05-08T23:04:04.594Z,13.84
2023-05-08T23:09:06.847Z,13.83
2023-05-08T23:14:08.371Z,13.82
2023-05-08T23:19:10.119Z,13.80
2023-05-08T23:24:11.663Z,13.83
2023-05-08T23:29:13.187Z,13.84
2023-05-08T23:34:14.645Z,13.88
2023-05-08T23:39:17.267Z,13.90
2023-05-08T23:44:19.115Z,13.93
2023-05-08T23:49:20.759Z,13.95
2023-05-08T23:54:22.201Z,13.93
2023-05-08T23:59:23.674Z,13.96
